sensor_id;sensor_type;location;lat;lon;timestamp;temperature;humidity
16388;DHT22;8303;53.446;9.988;2022-10-16T04:47:14;11.00;99.90
16388;DHT22;8303;53.446;9.988;2022-10-16T04:49:43;11.00;99.90
16388;DHT22;8303;53.446;9.988;2022-10-16T04:52:09;11.10;99.90
16388;DHT22;8303;53.446;9.988;2022-10-16T04:54:36;11.00;99.90
16388;DHT22;8303;53.446;9.988;2022-10-16T04:57:03;11.00;99.90
16388;DHT22;8303;53.446;9.988;2022-10-16T04:59:30;11.00;99.90
16388;DHT22;8303;53.446;9.988;2022-10-16T05:01:57;11.00;99.90
16388;DHT22;8303;53.446;9.988;2022-10-16T05:04:25;11.00;99.90
16388;DHT22;8303;53.446;9.988;2022-10-16T05:06:52;11.00;99.90
16388;DHT22;8303;53.446;9.988;2022-10-16T05:09:19;11.00;99.90
16388;DHT22;8303;53.446;9.988;2022-10-16T05:11:46;11.10;99.90
16388;DHT22;8303;53.446;9.988;2022-10-16T05:14:13;11.00;99.90
16388;DHT22;8303;53.446;9.988;2022-10-16T05:16:40;11.00;99.90
16388;DHT22;8303;53.446;9.988;2022-10-16T05:19:07;11.00;99.90
16388;DHT22;8303;53.446;9.988;2022-10-16T05:21:35;11.00;99.90
16388;DHT22;8303;53.446;9.988;2022-10-16T05:24:02;11.10;99.90
16388;DHT22;8303;53.446;9.988;2022-10-16T05:26:29;11.10;99.90
16388;DHT22;8303;53.446;9.988;2022-10-16T05:28:56;11.20;99.90
16388;DHT22;8303;53.446;9.988;2022-10-16T05:31:26;11.00;99.90
16388;DHT22;8303;53.446;9.988;2022-10-16T05:33:58;11.00;99.90
16388;DHT22;8303;53.446;9.988;2022-10-16T05:36:25;11.00;99.90
16388;DHT22;8303;53.446;9.988;2022-10-16T05:38:53;11.00;99.90
16388;DHT22;8303;53.446;9.988;2022-10-16T05:41:20;11.00;99.90
16388;DHT22;8303;53.446;9.988;2022-10-16T05:43:49;11.00;99.90
16388;DHT22;8303;53.446;9.988;2022-10-16T05:46:16;10.90;99.90
16388;DHT22;8303;53.446;9.988;2022-10-16T05:48:43;10.90;99.90
16388;DHT22;8303;53.446;9.988;2022-10-16T05:51:13;11.00;99.90
16388;DHT22;8303;53.446;9.988;2022-10-16T05:53:41;11.10;99.90
16388;DHT22;8303;53.446;9.988;2022-10-16T05:56:11;11.00;99.90
16388;DHT22;8303;53.446;9.988;2022-10-16T05:58:39;11.00;99.90
16388;DHT22;8303;53.446;9.988;2022-10-16T06:01:09;11.00;99.90
16388;DHT22;8303;53.446;9.988;2022-10-16T06:03:36;11.10;99.90
16388;DHT22;8303;53.446;9.988;2022-10-16T06:06:14;11.20;99.90
16388;DHT22;8303;53.446;9.988;2022-10-16T06:08:42;11.20;99.90
16388;DHT22;8303;53.446;9.988;2022-10-16T06:11:13;11.20;99.90
16388;DHT22;8303;53.446;9.988;2022-10-16T06:13:40;11.30;99.90
16388;DHT22;8303;53.446;9.988;2022-10-16T06:16:09;11.30;99.90
16388;DHT22;8303;53.446;9.988;2022-10-16T06:18:36;11.20;99.90
16388;DHT22;8303;53.446;9.988;2022-10-16T06:21:07;11.20;99.90
16388;DHT22;8303;53.446;9.988;2022-10-16T06:23:34;11.20;99.90
16388;DHT22;8303;53.446;9.988;2022-10-16T06:26:05;11.20;99.90
16388;DHT22;8303;53.446;9.988;2022-10-16T06:28:34;11.20;99.90
16388;DHT22;8303;53.446;9.988;2022-10-16T06:31:02;11.20;99.90
16388;DHT22;8303;53.446;9.988;2022-10-16T06:33:29;11.20;99.90
16388;DHT22;8303;53.446;9.988;2022-10-16T06:36:00;11.20;1.00
16388;DHT22;8303;53.446;9.988;2022-10-16T06:38:28;11.20;1.00
16388;DHT22;8303;53.446;9.988;2022-10-16T06:40:54;11.30;1.00
16388;DHT22;8303;53.446;9.988;2022-10-16T06:43:21;11.30;1.00
16388;DHT22;8303;53.446;9.988;2022-10-16T06:45:52;11.30;1.00
16388;DHT22;8303;53.446;9.988;2022-10-16T06:48:19;11.30;1.00
16388;DHT22;8303;53.446;9.988;2022-10-16T06:50:56;11.40;1.00
16388;DHT22;8303;53.446;9.988;2022-10-16T06:53:23;11.40;1.00
16388;DHT22;8303;53.446;9.988;2022-10-16T06:55:50;11.50;1.00
16388;DHT22;8303;53.446;9.988;2022-10-16T06:58:18;11.60;1.00
16388;DHT22;8303;53.446;9.988;2022-10-16T07:00:44;11.60;1.00
16388;DHT22;8303;53.446;9.988;2022-10-16T07:03:13;11.60;1.00
16388;DHT22;8303;53.446;9.988;2022-10-16T07:05:40;11.70;1.00
16388;DHT22;8303;53.446;9.988;2022-10-16T07:08:08;11.80;1.00
16388;DHT22;8303;53.446;9.988;2022-10-16T07:10:35;12.00;1.00
16388;DHT22;8303;53.446;9.988;2022-10-16T07:13:02;12.10;1.00
16388;DHT22;8303;53.446;9.988;2022-10-16T07:15:29;12.30;1.00
16388;DHT22;8303;53.446;9.988;2022-10-16T07:17:56;12.50;99.90
16388;DHT22;8303;53.446;9.988;2022-10-16T07:20:24;12.70;99.90
16388;DHT22;8303;53.446;9.988;2022-10-16T07:22:51;12.80;99.90
16388;DHT22;8303;53.446;9.988;2022-10-16T07:25:18;12.90;99.90
16388;DHT22;8303;53.446;9.988;2022-10-16T07:27:45;13.00;99.90
16388;DHT22;8303;53.446;9.988;2022-10-16T07:30:12;13.10;99.90
16388;DHT22;8303;53.446;9.988;2022-10-16T07:32:39;13.10;99.90
16388;DHT22;8303;53.446;9.988;2022-10-16T07:35:08;13.20;99.90
16388;DHT22;8303;53.446;9.988;2022-10-16T07:37:36;13.30;99.90
16388;DHT22;8303;53.446;9.988;2022-10-16T07:40:04;13.40;99.90
16388;DHT22;8303;53.446;9.988;2022-10-16T07:42:31;13.40;99.90
16388;DHT22;8303;53.446;9.988;2022-10-16T07:44:58;13.50;99.90
16388;DHT22;8303;53.446;9.988;2022-10-16T07:47:25;13.50;99.90
16388;DHT22;8303;53.446;9.988;2022-10-16T07:49:52;13.60;99.90
16388;DHT22;8303;53.446;9.988;2022-10-16T07:52:19;13.70;45.90
16388;DHT22;8303;53.446;9.988;2022-10-16T07:54:47;13.90;27.00
16388;DHT22;8303;53.446;9.988;2022-10-16T07:57:14;14.10;1.00
16388;DHT22;8303;53.446;9.988;2022-10-16T07:59:45;14.30;1.00
16388;DHT22;8303;53.446;9.988;2022-10-16T08:02:12;14.50;1.00
16388;DHT22;8303;53.446;9.988;2022-10-16T08:04:39;14.60;1.00
16388;DHT22;8303;53.446;9.988;2022-10-16T08:07:07;14.70;1.00
16388;DHT22;8303;53.446;9.988;2022-10-16T08:09:34;14.70;1.00
16388;DHT22;8303;53.446;9.988;2022-10-16T08:12:03;14.70;1.00
16388;DHT22;8303;53.446;9.988;2022-10-16T08:14:33;14.70;1.00
16388;DHT22;8303;53.446;9.988;2022-10-16T08:17:00;14.90;99.90
16388;DHT22;8303;53.446;9.988;2022-10-16T08:19:29;14.90;99.90
16388;DHT22;8303;53.446;9.988;2022-10-16T08:22:00;14.80;99.90
16388;DHT22;8303;53.446;9.988;2022-10-16T08:24:27;14.90;99.90
16388;DHT22;8303;53.446;9.988;2022-10-16T08:26:56;14.90;99.90
16388;DHT22;8303;53.446;9.988;2022-10-16T08:29:24;14.90;99.90
16388;DHT22;8303;53.446;9.988;2022-10-16T08:31:51;14.90;99.90
16388;DHT22;8303;53.446;9.988;2022-10-16T08:34:18;14.90;99.90
16388;DHT22;8303;53.446;9.988;2022-10-16T08:36:45;15.00;99.90
16388;DHT22;8303;53.446;9.988;2022-10-16T08:39:12;15.10;99.90
16388;DHT22;8303;53.446;9.988;2022-10-16T08:42:05;15.30;99.90
16388;DHT22;8303;53.446;9.988;2022-10-16T08:44:59;15.40;99.90
16388;DHT22;8303;53.446;9.988;2022-10-16T08:47:39;15.50;99.90
16388;DHT22;8303;53.446;9.988;2022-10-16T08:50:12;15.60;99.90
16388;DHT22;8303;53.446;9.988;2022-10-16T08:52:42;15.70;99.90
16388;DHT22;8303;53.446;9.988;2022-10-16T08:55:19;15.70;99.90
16388;DHT22;8303;53.446;9.988;2022-10-16T08:57:50;15.70;99.90
16388;DHT22;8303;53.446;9.988;2022-10-16T09:00:19;15.80;99.90
16388;DHT22;8303;53.446;9.988;2022-10-16T09:02:52;15.80;99.90
16388;DHT22;8303;53.446;9.988;2022-10-16T09:05:33;15.80;99.90
16388;DHT22;8303;53.446;9.988;2022-10-16T09:08:11;15.90;99.90
16388;DHT22;8303;53.446;9.988;2022-10-16T09:10:45;16.00;99.90
16388;DHT22;8303;53.446;9.988;2022-10-16T09:13:20;16.10;99.90
16388;DHT22;8303;53.446;9.988;2022-10-16T09:15:53;16.20;99.90
16388;DHT22;8303;53.446;9.988;2022-10-16T09:18:27;16.20;99.90
16388;DHT22;8303;53.446;9.988;2022-10-16T09:21:01;16.20;99.90
16388;DHT22;8303;53.446;9.988;2022-10-16T09:23:34;16.20;99.90
16388;DHT22;8303;53.446;9.988;2022-10-16T09:26:03;16.20;99.90
16388;DHT22;8303;53.446;9.988;2022-10-16T09:28:30;16.20;99.90
16388;DHT22;8303;53.446;9.988;2022-10-16T09:30:59;16.20;99.90
16388;DHT22;8303;53.446;9.988;2022-10-16T09:33:29;16.10;99.90
16388;DHT22;8303;53.446;9.988;2022-10-16T09:35:57;16.20;99.90
16388;DHT22;8303;53.446;9.988;2022-10-16T09:38:29;16.30;99.90
16388;DHT22;8303;53.446;9.988;2022-10-16T09:40:58;16.40;99.90
16388;DHT22;8303;53.446;9.988;2022-10-16T09:43:34;16.50;99.90
16388;DHT22;8303;53.446;9.988;2022-10-16T09:46:04;16.50;99.90
16388;DHT22;8303;53.446;9.988;2022-10-16T09:48:36;16.60;99.90
16388;DHT22;8303;53.446;9.988;2022-10-16T09:51:06;16.60;99.90
16388;DHT22;8303;53.446;9.988;2022-10-16T09:53:45;16.60;99.90
16388;DHT22;8303;53.446;9.988;2022-10-16T09:56:24;16.60;99.90
16388;DHT22;8303;53.446;9.988;2022-10-16T09:58:52;16.50;99.90
16388;DHT22;8303;53.446;9.988;2022-10-16T10:01:23;16.60;99.90
16388;DHT22;8303;53.446;9.988;2022-10-16T10:03:51;16.70;99.90
16388;DHT22;8303;53.446;9.988;2022-10-16T10:06:27;16.70;99.90
16388;DHT22;8303;53.446;9.988;2022-10-16T10:09:06;16.70;55.80
16388;DHT22;8303;53.446;9.988;2022-10-16T10:11:51;16.70;92.20
16388;DHT22;8303;53.446;9.988;2022-10-16T10:14:31;16.90;90.70
16388;DHT22;8303;53.446;9.988;2022-10-16T10:17:24;17.00;50.10
16388;DHT22;8303;53.446;9.988;2022-10-16T10:19:55;17.10;59.40
16388;DHT22;8303;53.446;9.988;2022-10-16T10:22:27;17.10;25.70
16388;DHT22;8303;53.446;9.988;2022-10-16T10:25:19;17.20;27.80
16388;DHT22;8303;53.446;9.988;2022-10-16T10:28:14;17.30;20.50
16388;DHT22;8303;53.446;9.988;2022-10-16T10:30:50;17.40;1.00
16388;DHT22;8303;53.446;9.988;2022-10-16T10:33:27;17.30;1.00
16388;DHT22;8303;53.446;9.988;2022-10-16T10:36:03;17.30;1.00
16388;DHT22;8303;53.446;9.988;2022-10-16T10:38:39;17.30;1.00
16388;DHT22;8303;53.446;9.988;2022-10-16T10:41:51;17.30;1.00
16388;DHT22;8303;53.446;9.988;2022-10-16T10:44:26;17.40;1.00
16388;DHT22;8303;53.446;9.988;2022-10-16T10:47:04;17.50;1.00
16388;DHT22;8303;53.446;9.988;2022-10-16T10:49:45;17.60;1.00
16388;DHT22;8303;53.446;9.988;2022-10-16T10:52:34;17.70;1.00
16388;DHT22;8303;53.446;9.988;2022-10-16T10:55:14;17.80;1.00
16388;DHT22;8303;53.446;9.988;2022-10-16T10:57:57;17.70;1.00
16388;DHT22;8303;53.446;9.988;2022-10-16T11:00:30;17.80;1.00
16388;DHT22;8303;53.446;9.988;2022-10-16T11:03:09;17.80;1.00
16388;DHT22;8303;53.446;9.988;2022-10-16T11:05:43;17.80;1.00
16388;DHT22;8303;53.446;9.988;2022-10-16T11:08:17;17.70;1.00
16388;DHT22;8303;53.446;9.988;2022-10-16T11:10:50;17.70;1.00
16388;DHT22;8303;53.446;9.988;2022-10-16T11:13:26;17.60;1.00
16388;DHT22;8303;53.446;9.988;2022-10-16T11:15:58;17.60;1.00
16388;DHT22;8303;53.446;9.988;2022-10-16T11:18:30;17.70;1.00
16388;DHT22;8303;53.446;9.988;2022-10-16T11:21:06;17.70;1.00
16388;DHT22;8303;53.446;9.988;2022-10-16T11:23:39;17.80;1.00
16388;DHT22;8303;53.446;9.988;2022-10-16T11:26:11;17.80;1.00
16388;DHT22;8303;53.446;9.988;2022-10-16T11:28:44;17.90;1.00
16388;DHT22;8303;53.446;9.988;2022-10-16T11:31:17;18.00;1.00
16388;DHT22;8303;53.446;9.988;2022-10-16T11:33:47;17.80;1.00
16388;DHT22;8303;53.446;9.988;2022-10-16T11:36:19;17.70;1.00
16388;DHT22;8303;53.446;9.988;2022-10-16T11:38:51;17.70;1.00
16388;DHT22;8303;53.446;9.988;2022-10-16T11:41:24;17.70;1.00
16388;DHT22;8303;53.446;9.988;2022-10-16T11:44:12;17.80;1.00
16388;DHT22;8303;53.446;9.988;2022-10-16T11:46:49;18.00;1.00
16388;DHT22;8303;53.446;9.988;2022-10-16T11:49:21;18.30;1.00
16388;DHT22;8303;53.446;9.988;2022-10-16T11:51:56;18.50;1.00
16388;DHT22;8303;53.446;9.988;2022-10-16T11:54:28;18.40;1.00
16388;DHT22;8303;53.446;9.988;2022-10-16T11:57:01;18.30;1.00
16388;DHT22;8303;53.446;9.988;2022-10-16T11:59:39;18.50;1.00
16388;DHT22;8303;53.446;9.988;2022-10-16T12:05:23;18.70;1.00
16388;DHT22;8303;53.446;9.988;2022-10-16T12:08:01;18.70;1.00
16388;DHT22;8303;53.446;9.988;2022-10-16T12:10:30;18.60;1.00
16388;DHT22;8303;53.446;9.988;2022-10-16T12:13:03;18.40;1.00
16388;DHT22;8303;53.446;9.988;2022-10-16T12:15:32;18.30;1.00
16388;DHT22;8303;53.446;9.988;2022-10-16T12:17:59;18.00;1.00
16388;DHT22;8303;53.446;9.988;2022-10-16T12:20:28;17.80;1.00
16388;DHT22;8303;53.446;9.988;2022-10-16T12:23:00;17.70;1.00
16388;DHT22;8303;53.446;9.988;2022-10-16T12:25:31;17.70;1.00
16388;DHT22;8303;53.446;9.988;2022-10-16T12:28:03;17.60;1.00
16388;DHT22;8303;53.446;9.988;2022-10-16T12:30:32;17.70;1.00
16388;DHT22;8303;53.446;9.988;2022-10-16T12:33:01;17.80;1.00
16388;DHT22;8303;53.446;9.988;2022-10-16T12:35:31;17.80;1.00
16388;DHT22;8303;53.446;9.988;2022-10-16T12:38:08;17.80;1.00
16388;DHT22;8303;53.446;9.988;2022-10-16T12:40:42;18.00;99.90
16388;DHT22;8303;53.446;9.988;2022-10-16T12:43:40;18.30;99.90
16388;DHT22;8303;53.446;9.988;2022-10-16T12:46:35;18.60;99.90
16388;DHT22;8303;53.446;9.988;2022-10-16T12:49:22;18.90;99.90
16388;DHT22;8303;53.446;9.988;2022-10-16T12:51:51;18.90;99.90
16388;DHT22;8303;53.446;9.988;2022-10-16T12:54:24;19.00;99.90
16388;DHT22;8303;53.446;9.988;2022-10-16T12:57:04;19.10;99.90
16388;DHT22;8303;53.446;9.988;2022-10-16T12:59:40;19.00;99.90
16388;DHT22;8303;53.446;9.988;2022-10-16T13:05:29;19.00;99.90
16388;DHT22;8303;53.446;9.988;2022-10-16T13:08:12;18.80;99.90
16388;DHT22;8303;53.446;9.988;2022-10-16T13:10:55;18.60;99.90
16388;DHT22;8303;53.446;9.988;2022-10-16T13:13:47;18.50;99.90
16388;DHT22;8303;53.446;9.988;2022-10-16T13:16:32;18.40;99.90
16388;DHT22;8303;53.446;9.988;2022-10-16T13:19:11;18.40;99.90
16388;DHT22;8303;53.446;9.988;2022-10-16T13:21:49;18.50;99.90
16388;DHT22;8303;53.446;9.988;2022-10-16T13:24:42;18.60;99.90
16388;DHT22;8303;53.446;9.988;2022-10-16T13:27:21;18.60;99.90
16388;DHT22;8303;53.446;9.988;2022-10-16T13:29:53;18.70;99.90
16388;DHT22;8303;53.446;9.988;2022-10-16T13:32:26;18.70;99.90
16388;DHT22;8303;53.446;9.988;2022-10-16T13:34:53;18.70;99.90
16388;DHT22;8303;53.446;9.988;2022-10-16T13:37:24;18.90;99.90
16388;DHT22;8303;53.446;9.988;2022-10-16T13:40:04;19.00;99.90
16388;DHT22;8303;53.446;9.988;2022-10-16T13:42:35;19.10;99.90
16388;DHT22;8303;53.446;9.988;2022-10-16T13:45:02;19.20;99.90
16388;DHT22;8303;53.446;9.988;2022-10-16T13:47:30;19.30;99.90
16388;DHT22;8303;53.446;9.988;2022-10-16T13:50:00;19.30;99.90
16388;DHT22;8303;53.446;9.988;2022-10-16T13:52:28;19.20;99.90
16388;DHT22;8303;53.446;9.988;2022-10-16T13:54:57;19.00;99.90
16388;DHT22;8303;53.446;9.988;2022-10-16T13:57:25;18.60;99.90
16388;DHT22;8303;53.446;9.988;2022-10-16T13:59:54;18.30;99.90
16388;DHT22;8303;53.446;9.988;2022-10-16T14:02:25;18.10;99.90
16388;DHT22;8303;53.446;9.988;2022-10-16T14:04:56;17.90;99.90
16388;DHT22;8303;53.446;9.988;2022-10-16T14:07:25;17.90;99.90
16388;DHT22;8303;53.446;9.988;2022-10-16T14:09:54;17.90;99.90
16388;DHT22;8303;53.446;9.988;2022-10-16T14:12:22;17.90;99.90
16388;DHT22;8303;53.446;9.988;2022-10-16T14:14:53;17.90;99.90
16388;DHT22;8303;53.446;9.988;2022-10-16T14:17:23;17.90;99.90
16388;DHT22;8303;53.446;9.988;2022-10-16T14:19:52;17.90;99.90
16388;DHT22;8303;53.446;9.988;2022-10-16T14:22:28;17.90;99.90
16388;DHT22;8303;53.446;9.988;2022-10-16T14:24:56;17.90;99.90
16388;DHT22;8303;53.446;9.988;2022-10-16T14:27:30;18.00;99.90
16388;DHT22;8303;53.446;9.988;2022-10-16T14:30:16;18.10;99.90
16388;DHT22;8303;53.446;9.988;2022-10-16T14:32:57;18.10;99.90
16388;DHT22;8303;53.446;9.988;2022-10-16T14:35:29;18.00;99.90
16388;DHT22;8303;53.446;9.988;2022-10-16T14:37:58;18.00;99.90
16388;DHT22;8303;53.446;9.988;2022-10-16T14:40:28;18.00;99.90
16388;DHT22;8303;53.446;9.988;2022-10-16T14:42:55;18.00;99.90
16388;DHT22;8303;53.446;9.988;2022-10-16T14:45:26;17.90;99.90
16388;DHT22;8303;53.446;9.988;2022-10-16T14:47:55;18.00;99.90
16388;DHT22;8303;53.446;9.988;2022-10-16T14:51:01;18.10;99.90
16388;DHT22;8303;53.446;9.988;2022-10-16T14:53:14;18.20;99.90
16388;DHT22;8303;53.446;9.988;2022-10-16T14:55:42;18.40;99.90
16388;DHT22;8303;53.446;9.988;2022-10-16T14:58:14;18.30;99.90
16388;DHT22;8303;53.446;9.988;2022-10-16T15:00:43;18.30;99.90
16388;DHT22;8303;53.446;9.988;2022-10-16T15:03:10;18.20;99.90
16388;DHT22;8303;53.446;9.988;2022-10-16T15:05:37;18.00;99.90
16388;DHT22;8303;53.446;9.988;2022-10-16T15:08:04;17.80;99.90
16388;DHT22;8303;53.446;9.988;2022-10-16T15:10:35;17.70;99.90
16388;DHT22;8303;53.446;9.988;2022-10-16T15:13:04;17.60;99.90
16388;DHT22;8303;53.446;9.988;2022-10-16T15:15:34;17.40;99.90
16388;DHT22;8303;53.446;9.988;2022-10-16T15:18:03;17.30;99.90
16388;DHT22;8303;53.446;9.988;2022-10-16T15:20:32;17.20;99.90
16388;DHT22;8303;53.446;9.988;2022-10-16T15:23:00;17.20;99.90
16388;DHT22;8303;53.446;9.988;2022-10-16T15:25:37;17.10;99.90
16388;DHT22;8303;53.446;9.988;2022-10-16T15:28:05;17.00;99.90
16388;DHT22;8303;53.446;9.988;2022-10-16T15:30:33;17.00;99.90
16388;DHT22;8303;53.446;9.988;2022-10-16T15:32:59;16.90;99.90
16388;DHT22;8303;53.446;9.988;2022-10-16T15:35:28;16.80;99.90
16388;DHT22;8303;53.446;9.988;2022-10-16T15:37:55;16.80;99.90
16388;DHT22;8303;53.446;9.988;2022-10-16T15:40:22;16.70;99.90
16388;DHT22;8303;53.446;9.988;2022-10-16T15:42:49;16.60;99.90
16388;DHT22;8303;53.446;9.988;2022-10-16T15:45:16;16.50;99.90
16388;DHT22;8303;53.446;9.988;2022-10-16T15:47:44;16.30;99.90
16388;DHT22;8303;53.446;9.988;2022-10-16T15:50:35;16.30;99.90
16388;DHT22;8303;53.446;9.988;2022-10-16T15:53:04;16.10;99.90
16388;DHT22;8303;53.446;9.988;2022-10-16T15:55:31;15.90;99.90
16388;DHT22;8303;53.446;9.988;2022-10-16T15:58:01;15.80;99.90
16388;DHT22;8303;53.446;9.988;2022-10-16T16:00:28;15.70;99.90
16388;DHT22;8303;53.446;9.988;2022-10-16T16:02:54;15.60;99.90
16388;DHT22;8303;53.446;9.988;2022-10-16T16:05:22;15.40;99.90
16388;DHT22;8303;53.446;9.988;2022-10-16T16:07:51;15.20;99.90
16388;DHT22;8303;53.446;9.988;2022-10-16T16:10:18;15.10;99.90
16388;DHT22;8303;53.446;9.988;2022-10-16T16:12:46;15.00;99.90
16388;DHT22;8303;53.446;9.988;2022-10-16T16:15:17;14.90;99.90
16388;DHT22;8303;53.446;9.988;2022-10-16T16:17:44;14.70;99.90
16388;DHT22;8303;53.446;9.988;2022-10-16T16:20:11;14.60;99.90
16388;DHT22;8303;53.446;9.988;2022-10-16T16:22:38;14.50;99.90
16388;DHT22;8303;53.446;9.988;2022-10-16T16:25:07;14.40;99.90
16388;DHT22;8303;53.446;9.988;2022-10-16T16:27:34;14.30;99.90
16388;DHT22;8303;53.446;9.988;2022-10-16T16:30:05;14.10;99.90
16388;DHT22;8303;53.446;9.988;2022-10-16T16:32:33;14.00;99.90
16388;DHT22;8303;53.446;9.988;2022-10-16T16:35:05;13.90;1.00
16388;DHT22;8303;53.446;9.988;2022-10-16T16:37:32;13.80;1.00
16388;DHT22;8303;53.446;9.988;2022-10-16T16:40:03;13.80;1.00
16388;DHT22;8303;53.446;9.988;2022-10-16T16:42:34;13.70;1.00
16388;DHT22;8303;53.446;9.988;2022-10-16T16:45:01;13.60;1.00
16388;DHT22;8303;53.446;9.988;2022-10-16T16:47:27;13.50;1.00
16388;DHT22;8303;53.446;9.988;2022-10-16T16:49:56;13.30;1.00
16388;DHT22;8303;53.446;9.988;2022-10-16T16:52:25;13.20;1.00
16388;DHT22;8303;53.446;9.988;2022-10-16T16:54:52;13.10;1.00
16388;DHT22;8303;53.446;9.988;2022-10-16T16:57:20;13.00;1.00
16388;DHT22;8303;53.446;9.988;2022-10-16T16:59:50;12.90;1.00
16388;DHT22;8303;53.446;9.988;2022-10-16T17:02:16;12.80;1.00
16388;DHT22;8303;53.446;9.988;2022-10-16T17:04:43;12.80;1.00
16388;DHT22;8303;53.446;9.988;2022-10-16T17:07:10;12.70;1.00
16388;DHT22;8303;53.446;9.988;2022-10-16T17:09:37;12.60;1.00
16388;DHT22;8303;53.446;9.988;2022-10-16T17:12:04;12.60;39.90
16388;DHT22;8303;53.446;9.988;2022-10-16T17:14:31;12.50;97.40
16388;DHT22;8303;53.446;9.988;2022-10-16T17:17:00;12.50;99.90
16388;DHT22;8303;53.446;9.988;2022-10-16T17:19:26;12.40;99.90
16388;DHT22;8303;53.446;9.988;2022-10-16T17:21:53;12.40;99.90
16388;DHT22;8303;53.446;9.988;2022-10-16T17:24:20;12.40;99.90
16388;DHT22;8303;53.446;9.988;2022-10-16T17:26:47;12.30;99.90
16388;DHT22;8303;53.446;9.988;2022-10-16T17:29:15;12.20;99.90
16388;DHT22;8303;53.446;9.988;2022-10-16T17:31:42;12.20;99.90
16388;DHT22;8303;53.446;9.988;2022-10-16T17:34:11;12.20;99.90
16388;DHT22;8303;53.446;9.988;2022-10-16T17:36:39;12.10;99.90
16388;DHT22;8303;53.446;9.988;2022-10-16T17:39:10;12.10;99.90
16388;DHT22;8303;53.446;9.988;2022-10-16T17:41:38;12.10;99.90
16388;DHT22;8303;53.446;9.988;2022-10-16T17:44:05;12.00;99.90
16388;DHT22;8303;53.446;9.988;2022-10-16T17:46:32;11.90;99.90
16388;DHT22;8303;53.446;9.988;2022-10-16T17:48:59;11.90;99.90
16388;DHT22;8303;53.446;9.988;2022-10-16T17:51:30;11.80;1.00
16388;DHT22;8303;53.446;9.988;2022-10-16T17:53:59;11.70;1.00
16388;DHT22;8303;53.446;9.988;2022-10-16T17:56:26;11.70;1.00
16388;DHT22;8303;53.446;9.988;2022-10-16T17:58:55;11.70;1.00
16388;DHT22;8303;53.446;9.988;2022-10-16T18:01:26;11.60;1.00
16388;DHT22;8303;53.446;9.988;2022-10-16T18:03:55;11.50;1.00
16388;DHT22;8303;53.446;9.988;2022-10-16T18:06:23;11.50;1.00
16388;DHT22;8303;53.446;9.988;2022-10-16T18:08:52;11.40;1.00
16388;DHT22;8303;53.446;9.988;2022-10-16T18:11:34;11.30;1.00
16388;DHT22;8303;53.446;9.988;2022-10-16T18:14:01;11.30;1.00
16388;DHT22;8303;53.446;9.988;2022-10-16T18:16:28;11.20;1.00
16388;DHT22;8303;53.446;9.988;2022-10-16T18:18:57;11.10;1.00
16388;DHT22;8303;53.446;9.988;2022-10-16T18:24:47;11.10;31.30
16388;DHT22;8303;53.446;9.988;2022-10-16T18:27:14;11.00;72.60
16388;DHT22;8303;53.446;9.988;2022-10-16T18:29:41;11.00;92.70
16388;DHT22;8303;53.446;9.988;2022-10-16T18:32:08;11.00;99.90
16388;DHT22;8303;53.446;9.988;2022-10-16T18:34:35;11.00;99.90
16388;DHT22;8303;53.446;9.988;2022-10-16T18:37:02;10.90;99.90
16388;DHT22;8303;53.446;9.988;2022-10-16T18:39:28;10.90;99.90
16388;DHT22;8303;53.446;9.988;2022-10-16T18:41:57;10.80;99.90
16388;DHT22;8303;53.446;9.988;2022-10-16T18:44:25;10.80;99.90
16388;DHT22;8303;53.446;9.988;2022-10-16T18:46:52;10.80;99.90
16388;DHT22;8303;53.446;9.988;2022-10-16T18:49:21;10.80;99.90
16388;DHT22;8303;53.446;9.988;2022-10-16T18:51:48;10.70;99.90
16388;DHT22;8303;53.446;9.988;2022-10-16T18:58:33;10.70;99.90
16388;DHT22;8303;53.446;9.988;2022-10-16T19:01:04;10.60;99.90
16388;DHT22;8303;53.446;9.988;2022-10-16T19:03:31;10.70;99.90
16388;DHT22;8303;53.446;9.988;2022-10-16T19:05:59;10.70;99.90
16388;DHT22;8303;53.446;9.988;2022-10-16T19:08:26;10.70;99.90
16388;DHT22;8303;53.446;9.988;2022-10-16T19:10:54;10.80;99.90
16388;DHT22;8303;53.446;9.988;2022-10-16T19:13:21;10.70;99.90
16388;DHT22;8303;53.446;9.988;2022-10-16T19:15:49;10.70;99.90
16388;DHT22;8303;53.446;9.988;2022-10-16T19:18:16;10.70;99.90
16388;DHT22;8303;53.446;9.988;2022-10-16T19:20:43;10.70;99.90
16388;DHT22;8303;53.446;9.988;2022-10-16T19:23:10;10.70;99.90
16388;DHT22;8303;53.446;9.988;2022-10-16T19:25:37;10.70;99.90
16388;DHT22;8303;53.446;9.988;2022-10-16T19:28:05;10.70;99.90
16388;DHT22;8303;53.446;9.988;2022-10-16T19:30:35;10.70;99.90
16388;DHT22;8303;53.446;9.988;2022-10-16T19:33:04;10.60;99.90
16388;DHT22;8303;53.446;9.988;2022-10-16T19:35:31;10.60;99.90
16388;DHT22;8303;53.446;9.988;2022-10-16T19:37:58;10.60;99.90
16388;DHT22;8303;53.446;9.988;2022-10-16T19:40:26;10.60;99.90
16388;DHT22;8303;53.446;9.988;2022-10-16T19:42:52;10.60;99.90
16388;DHT22;8303;53.446;9.988;2022-10-16T19:45:19;10.50;99.90
16388;DHT22;8303;53.446;9.988;2022-10-16T19:47:46;10.60;99.90
16388;DHT22;8303;53.446;9.988;2022-10-16T19:50:14;10.60;99.90
16388;DHT22;8303;53.446;9.988;2022-10-16T19:52:43;10.60;99.90
16388;DHT22;8303;53.446;9.988;2022-10-16T19:55:10;10.60;99.90
16388;DHT22;8303;53.446;9.988;2022-10-16T19:57:37;10.50;99.90
16388;DHT22;8303;53.446;9.988;2022-10-16T20:00:05;10.50;99.90
16388;DHT22;8303;53.446;9.988;2022-10-16T20:02:33;10.50;99.90
16388;DHT22;8303;53.446;9.988;2022-10-16T20:04:59;10.50;99.90
16388;DHT22;8303;53.446;9.988;2022-10-16T20:21:28;10.70;99.90
16388;DHT22;8303;53.446;9.988;2022-10-16T20:23:55;10.60;99.90
16388;DHT22;8303;53.446;9.988;2022-10-16T20:26:24;10.60;99.90
16388;DHT22;8303;53.446;9.988;2022-10-16T20:28:52;10.60;99.90
